sensor_id;sensor_type;location;lat;lon;timestamp;P1;durP1;ratioP1;P2;durP2;ratioP2
23802;SDS011;12082;51.786;6.018;2023-07-28T00:02:23;25.80;;;23.00;;
23802;SDS011;12082;51.786;6.018;2023-07-28T00:04:51;30.90;;;24.97;;
23802;SDS011;12082;51.786;6.018;2023-07-28T00:07:17;29.47;;;24.77;;
23802;SDS011;12082;51.786;6.018;2023-07-28T00:09:43;31.30;;;24.33;;
23802;SDS011;12082;51.786;6.018;2023-07-28T00:12:08;31.50;;;25.37;;
23802;SDS011;12082;51.786;6.018;2023-07-28T00:14:34;29.67;;;25.57;;
23802;SDS011;12082;51.786;6.018;2023-07-28T00:16:59;29.07;;;25.97;;
23802;SDS011;12082;51.786;6.018;2023-07-28T00:19:25;30.30;;;25.77;;
23802;SDS011;12082;51.786;6.018;2023-07-28T00:21:51;33.13;;;25.23;;
23802;SDS011;12082;51.786;6.018;2023-07-28T00:24:16;34.33;;;27.20;;
23802;SDS011;12082;51.786;6.018;2023-07-28T00:26:43;30.30;;;23.63;;
23802;SDS011;12082;51.786;6.018;2023-07-28T00:29:09;37.77;;;27.93;;
23802;SDS011;12082;51.786;6.018;2023-07-28T00:31:34;33.33;;;28.33;;
23802;SDS011;12082;51.786;6.018;2023-07-28T00:34:01;36.30;;;28.97;;
23802;SDS011;12082;51.786;6.018;2023-07-28T00:36:27;43.23;;;30.17;;
23802;SDS011;12082;51.786;6.018;2023-07-28T00:38:53;39.40;;;28.07;;
23802;SDS011;12082;51.786;6.018;2023-07-28T00:41:18;45.87;;;29.97;;
23802;SDS011;12082;51.786;6.018;2023-07-28T00:43:44;44.17;;;30.80;;
23802;SDS011;12082;51.786;6.018;2023-07-28T00:46:09;46.63;;;31.97;;
23802;SDS011;12082;51.786;6.018;2023-07-28T00:48:35;43.73;;;32.07;;
23802;SDS011;12082;51.786;6.018;2023-07-28T00:51:01;46.87;;;31.73;;
23802;SDS011;12082;51.786;6.018;2023-07-28T00:53:27;40.97;;;31.33;;
23802;SDS011;12082;51.786;6.018;2023-07-28T00:55:54;44.43;;;32.37;;
23802;SDS011;12082;51.786;6.018;2023-07-28T00:58:21;44.37;;;32.27;;
23802;SDS011;12082;51.786;6.018;2023-07-28T01:00:47;50.20;;;32.70;;
23802;SDS011;12082;51.786;6.018;2023-07-28T01:03:12;51.03;;;32.43;;
23802;SDS011;12082;51.786;6.018;2023-07-28T01:05:42;47.87;;;30.73;;
23802;SDS011;12082;51.786;6.018;2023-07-28T01:10:59;46.47;;;29.80;;
23802;SDS011;12082;51.786;6.018;2023-07-28T01:13:24;45.03;;;30.33;;
23802;SDS011;12082;51.786;6.018;2023-07-28T01:15:50;48.50;;;29.13;;
23802;SDS011;12082;51.786;6.018;2023-07-28T01:18:15;53.10;;;32.53;;
23802;SDS011;12082;51.786;6.018;2023-07-28T01:20:41;51.77;;;30.47;;
23802;SDS011;12082;51.786;6.018;2023-07-28T01:23:20;46.10;;;31.07;;
23802;SDS011;12082;51.786;6.018;2023-07-28T01:25:59;49.17;;;28.30;;
23802;SDS011;12082;51.786;6.018;2023-07-28T01:28:30;44.37;;;29.67;;
23802;SDS011;12082;51.786;6.018;2023-07-28T01:30:57;53.73;;;29.87;;
23802;SDS011;12082;51.786;6.018;2023-07-28T01:33:24;50.33;;;29.20;;
23802;SDS011;12082;51.786;6.018;2023-07-28T01:35:50;51.80;;;29.33;;
23802;SDS011;12082;51.786;6.018;2023-07-28T01:38:15;52.33;;;30.47;;
23802;SDS011;12082;51.786;6.018;2023-07-28T01:40:41;51.00;;;29.83;;
23802;SDS011;12082;51.786;6.018;2023-07-28T01:43:06;53.73;;;29.10;;
23802;SDS011;12082;51.786;6.018;2023-07-28T01:45:32;50.57;;;29.23;;
23802;SDS011;12082;51.786;6.018;2023-07-28T01:47:58;54.43;;;30.17;;
23802;SDS011;12082;51.786;6.018;2023-07-28T01:50:23;50.43;;;30.10;;
23802;SDS011;12082;51.786;6.018;2023-07-28T01:52:49;53.97;;;28.37;;
23802;SDS011;12082;51.786;6.018;2023-07-28T01:55:15;49.77;;;29.07;;
23802;SDS011;12082;51.786;6.018;2023-07-28T01:57:40;51.93;;;30.40;;
23802;SDS011;12082;51.786;6.018;2023-07-28T02:00:15;55.37;;;31.57;;
23802;SDS011;12082;51.786;6.018;2023-07-28T02:02:41;59.80;;;32.17;;
23802;SDS011;12082;51.786;6.018;2023-07-28T02:05:07;55.40;;;30.37;;
23802;SDS011;12082;51.786;6.018;2023-07-28T02:07:33;57.13;;;30.30;;
23802;SDS011;12082;51.786;6.018;2023-07-28T02:09:58;52.30;;;30.07;;
23802;SDS011;12082;51.786;6.018;2023-07-28T02:12:24;60.17;;;29.87;;
23802;SDS011;12082;51.786;6.018;2023-07-28T02:14:50;56.00;;;29.43;;
23802;SDS011;12082;51.786;6.018;2023-07-28T02:17:16;54.93;;;29.37;;
23802;SDS011;12082;51.786;6.018;2023-07-28T02:19:41;50.87;;;27.73;;
23802;SDS011;12082;51.786;6.018;2023-07-28T02:22:07;50.60;;;26.97;;
23802;SDS011;12082;51.786;6.018;2023-07-28T02:24:32;51.60;;;27.43;;
23802;SDS011;12082;51.786;6.018;2023-07-28T02:26:58;57.53;;;29.07;;
23802;SDS011;12082;51.786;6.018;2023-07-28T02:29:23;52.23;;;26.03;;
23802;SDS011;12082;51.786;6.018;2023-07-28T02:31:49;47.93;;;25.73;;
23802;SDS011;12082;51.786;6.018;2023-07-28T02:34:14;56.73;;;28.07;;
23802;SDS011;12082;51.786;6.018;2023-07-28T02:36:40;49.20;;;25.63;;
23802;SDS011;12082;51.786;6.018;2023-07-28T02:39:05;45.80;;;24.70;;
23802;SDS011;12082;51.786;6.018;2023-07-28T02:41:31;45.93;;;26.60;;
23802;SDS011;12082;51.786;6.018;2023-07-28T02:43:56;52.27;;;26.67;;
23802;SDS011;12082;51.786;6.018;2023-07-28T02:46:22;48.50;;;24.83;;
23802;SDS011;12082;51.786;6.018;2023-07-28T02:48:47;51.07;;;25.40;;
23802;SDS011;12082;51.786;6.018;2023-07-28T02:51:13;48.60;;;25.07;;
23802;SDS011;12082;51.786;6.018;2023-07-28T02:53:38;48.83;;;26.13;;
23802;SDS011;12082;51.786;6.018;2023-07-28T02:56:04;55.20;;;25.63;;
23802;SDS011;12082;51.786;6.018;2023-07-28T02:58:29;56.07;;;25.97;;
23802;SDS011;12082;51.786;6.018;2023-07-28T03:00:55;54.67;;;26.57;;
23802;SDS011;12082;51.786;6.018;2023-07-28T03:03:20;56.57;;;26.43;;
23802;SDS011;12082;51.786;6.018;2023-07-28T03:05:46;49.87;;;26.60;;
23802;SDS011;12082;51.786;6.018;2023-07-28T03:08:16;53.93;;;25.30;;
23802;SDS011;12082;51.786;6.018;2023-07-28T03:10:41;44.57;;;25.37;;
23802;SDS011;12082;51.786;6.018;2023-07-28T03:13:07;54.87;;;24.90;;
23802;SDS011;12082;51.786;6.018;2023-07-28T03:15:33;57.37;;;26.40;;
23802;SDS011;12082;51.786;6.018;2023-07-28T03:17:58;60.20;;;26.97;;
23802;SDS011;12082;51.786;6.018;2023-07-28T03:20:24;56.67;;;25.53;;
23802;SDS011;12082;51.786;6.018;2023-07-28T03:22:50;57.53;;;24.80;;
23802;SDS011;12082;51.786;6.018;2023-07-28T03:25:15;56.20;;;27.57;;
23802;SDS011;12082;51.786;6.018;2023-07-28T03:27:41;54.33;;;26.97;;
23802;SDS011;12082;51.786;6.018;2023-07-28T03:30:07;53.83;;;26.47;;
23802;SDS011;12082;51.786;6.018;2023-07-28T03:32:35;51.50;;;25.93;;
23802;SDS011;12082;51.786;6.018;2023-07-28T03:35:01;56.60;;;26.57;;
23802;SDS011;12082;51.786;6.018;2023-07-28T03:37:29;56.87;;;26.37;;
23802;SDS011;12082;51.786;6.018;2023-07-28T03:39:55;58.50;;;27.90;;
23802;SDS011;12082;51.786;6.018;2023-07-28T03:42:20;54.53;;;26.20;;
23802;SDS011;12082;51.786;6.018;2023-07-28T03:44:46;62.23;;;26.40;;
23802;SDS011;12082;51.786;6.018;2023-07-28T03:47:11;53.63;;;26.90;;
23802;SDS011;12082;51.786;6.018;2023-07-28T03:49:37;56.03;;;25.37;;
23802;SDS011;12082;51.786;6.018;2023-07-28T03:52:02;55.03;;;26.30;;
23802;SDS011;12082;51.786;6.018;2023-07-28T03:54:28;62.10;;;26.53;;
23802;SDS011;12082;51.786;6.018;2023-07-28T03:56:54;59.97;;;27.77;;
23802;SDS011;12082;51.786;6.018;2023-07-28T03:59:19;56.03;;;25.10;;
23802;SDS011;12082;51.786;6.018;2023-07-28T04:01:45;62.10;;;26.20;;
23802;SDS011;12082;51.786;6.018;2023-07-28T04:04:10;64.40;;;27.17;;
23802;SDS011;12082;51.786;6.018;2023-07-28T04:06:40;65.30;;;26.90;;
23802;SDS011;12082;51.786;6.018;2023-07-28T04:09:11;66.17;;;27.77;;
23802;SDS011;12082;51.786;6.018;2023-07-28T04:11:39;61.17;;;26.90;;
23802;SDS011;12082;51.786;6.018;2023-07-28T04:14:04;64.23;;;28.83;;
23802;SDS011;12082;51.786;6.018;2023-07-28T04:16:30;56.67;;;25.90;;
23802;SDS011;12082;51.786;6.018;2023-07-28T04:18:56;64.83;;;28.00;;
23802;SDS011;12082;51.786;6.018;2023-07-28T04:21:22;63.23;;;26.80;;
23802;SDS011;12082;51.786;6.018;2023-07-28T04:23:47;59.67;;;26.73;;
23802;SDS011;12082;51.786;6.018;2023-07-28T04:26:13;56.80;;;26.27;;
23802;SDS011;12082;51.786;6.018;2023-07-28T04:28:39;55.50;;;27.13;;
23802;SDS011;12082;51.786;6.018;2023-07-28T04:31:04;71.50;;;28.07;;
23802;SDS011;12082;51.786;6.018;2023-07-28T04:33:30;61.67;;;27.37;;
23802;SDS011;12082;51.786;6.018;2023-07-28T04:35:56;70.00;;;28.43;;
23802;SDS011;12082;51.786;6.018;2023-07-28T04:38:21;64.40;;;28.17;;
23802;SDS011;12082;51.786;6.018;2023-07-28T04:40:47;64.07;;;27.23;;
23802;SDS011;12082;51.786;6.018;2023-07-28T04:43:12;62.80;;;27.97;;
23802;SDS011;12082;51.786;6.018;2023-07-28T04:45:38;69.50;;;27.10;;
23802;SDS011;12082;51.786;6.018;2023-07-28T04:48:03;67.27;;;28.80;;
23802;SDS011;12082;51.786;6.018;2023-07-28T04:50:29;64.57;;;27.80;;
23802;SDS011;12082;51.786;6.018;2023-07-28T04:52:55;55.97;;;26.77;;
23802;SDS011;12082;51.786;6.018;2023-07-28T04:55:20;66.90;;;27.63;;
23802;SDS011;12082;51.786;6.018;2023-07-28T04:57:46;61.80;;;28.17;;
23802;SDS011;12082;51.786;6.018;2023-07-28T05:00:12;59.73;;;27.57;;
23802;SDS011;12082;51.786;6.018;2023-07-28T05:02:38;56.63;;;27.63;;
23802;SDS011;12082;51.786;6.018;2023-07-28T05:05:03;57.67;;;27.57;;
23802;SDS011;12082;51.786;6.018;2023-07-28T05:07:29;63.53;;;27.30;;
23802;SDS011;12082;51.786;6.018;2023-07-28T05:09:55;61.40;;;28.53;;
23802;SDS011;12082;51.786;6.018;2023-07-28T05:12:20;59.93;;;29.40;;
23802;SDS011;12082;51.786;6.018;2023-07-28T05:14:46;65.93;;;28.53;;
23802;SDS011;12082;51.786;6.018;2023-07-28T05:17:12;59.20;;;27.27;;
23802;SDS011;12082;51.786;6.018;2023-07-28T05:19:37;60.93;;;28.87;;
23802;SDS011;12082;51.786;6.018;2023-07-28T05:22:03;59.10;;;28.67;;
23802;SDS011;12082;51.786;6.018;2023-07-28T05:24:31;64.90;;;28.70;;
23802;SDS011;12082;51.786;6.018;2023-07-28T05:26:57;69.93;;;28.30;;
23802;SDS011;12082;51.786;6.018;2023-07-28T05:29:22;61.70;;;29.00;;
23802;SDS011;12082;51.786;6.018;2023-07-28T05:31:48;67.40;;;28.20;;
23802;SDS011;12082;51.786;6.018;2023-07-28T05:34:13;59.53;;;29.63;;
23802;SDS011;12082;51.786;6.018;2023-07-28T05:36:39;60.80;;;28.33;;
23802;SDS011;12082;51.786;6.018;2023-07-28T05:39:05;59.47;;;28.50;;
23802;SDS011;12082;51.786;6.018;2023-07-28T05:41:30;68.13;;;30.30;;
23802;SDS011;12082;51.786;6.018;2023-07-28T05:43:57;62.27;;;30.60;;
23802;SDS011;12082;51.786;6.018;2023-07-28T05:46:22;57.17;;;29.73;;
23802;SDS011;12082;51.786;6.018;2023-07-28T05:48:48;61.13;;;29.37;;
23802;SDS011;12082;51.786;6.018;2023-07-28T05:51:14;62.93;;;30.13;;
23802;SDS011;12082;51.786;6.018;2023-07-28T05:53:39;51.37;;;28.83;;
23802;SDS011;12082;51.786;6.018;2023-07-28T05:56:05;57.90;;;29.60;;
23802;SDS011;12082;51.786;6.018;2023-07-28T05:58:31;59.13;;;29.17;;
23802;SDS011;12082;51.786;6.018;2023-07-28T06:00:56;56.70;;;29.60;;
23802;SDS011;12082;51.786;6.018;2023-07-28T06:03:22;56.87;;;30.03;;
23802;SDS011;12082;51.786;6.018;2023-07-28T06:05:48;60.30;;;29.97;;
23802;SDS011;12082;51.786;6.018;2023-07-28T06:08:13;60.27;;;30.87;;
23802;SDS011;12082;51.786;6.018;2023-07-28T06:10:39;51.53;;;27.53;;
23802;SDS011;12082;51.786;6.018;2023-07-28T06:13:04;53.83;;;30.30;;
23802;SDS011;12082;51.786;6.018;2023-07-28T06:15:30;50.50;;;28.27;;
23802;SDS011;12082;51.786;6.018;2023-07-28T06:17:56;54.63;;;30.50;;
23802;SDS011;12082;51.786;6.018;2023-07-28T06:20:21;47.03;;;28.13;;
23802;SDS011;12082;51.786;6.018;2023-07-28T06:22:47;46.83;;;28.80;;
23802;SDS011;12082;51.786;6.018;2023-07-28T06:25:13;51.77;;;28.53;;
23802;SDS011;12082;51.786;6.018;2023-07-28T06:27:38;47.37;;;28.17;;
23802;SDS011;12082;51.786;6.018;2023-07-28T06:30:04;44.30;;;28.23;;
23802;SDS011;12082;51.786;6.018;2023-07-28T06:32:30;43.07;;;27.23;;
23802;SDS011;12082;51.786;6.018;2023-07-28T06:34:56;45.07;;;28.60;;
23802;SDS011;12082;51.786;6.018;2023-07-28T06:37:22;42.30;;;27.10;;
23802;SDS011;12082;51.786;6.018;2023-07-28T06:39:48;40.67;;;25.70;;
23802;SDS011;12082;51.786;6.018;2023-07-28T06:42:14;37.67;;;25.23;;
23802;SDS011;12082;51.786;6.018;2023-07-28T06:44:41;40.33;;;25.90;;
23802;SDS011;12082;51.786;6.018;2023-07-28T06:47:07;38.50;;;25.70;;
23802;SDS011;12082;51.786;6.018;2023-07-28T06:49:32;34.77;;;25.07;;
23802;SDS011;12082;51.786;6.018;2023-07-28T06:51:58;32.40;;;24.33;;
23802;SDS011;12082;51.786;6.018;2023-07-28T06:54:24;34.90;;;24.23;;
23802;SDS011;12082;51.786;6.018;2023-07-28T06:56:49;33.97;;;24.13;;
23802;SDS011;12082;51.786;6.018;2023-07-28T06:59:15;32.20;;;22.27;;
23802;SDS011;12082;51.786;6.018;2023-07-28T07:01:41;31.70;;;24.70;;
23802;SDS011;12082;51.786;6.018;2023-07-28T07:04:06;29.83;;;23.67;;
23802;SDS011;12082;51.786;6.018;2023-07-28T07:06:32;32.43;;;25.03;;
23802;SDS011;12082;51.786;6.018;2023-07-28T07:08:57;34.40;;;23.83;;
23802;SDS011;12082;51.786;6.018;2023-07-28T07:11:23;37.70;;;26.23;;
23802;SDS011;12082;51.786;6.018;2023-07-28T07:13:49;29.70;;;22.57;;
23802;SDS011;12082;51.786;6.018;2023-07-28T07:16:15;38.03;;;25.53;;
23802;SDS011;12082;51.786;6.018;2023-07-28T07:18:41;34.13;;;25.80;;
23802;SDS011;12082;51.786;6.018;2023-07-28T07:21:10;39.53;;;26.33;;
23802;SDS011;12082;51.786;6.018;2023-07-28T07:23:36;35.17;;;25.90;;
23802;SDS011;12082;51.786;6.018;2023-07-28T07:26:02;34.70;;;27.00;;
23802;SDS011;12082;51.786;6.018;2023-07-28T07:28:28;36.87;;;27.53;;
23802;SDS011;12082;51.786;6.018;2023-07-28T07:30:54;32.33;;;26.67;;
23802;SDS011;12082;51.786;6.018;2023-07-28T07:33:20;43.73;;;28.80;;
23802;SDS011;12082;51.786;6.018;2023-07-28T07:35:46;35.20;;;26.03;;
23802;SDS011;12082;51.786;6.018;2023-07-28T07:38:12;35.87;;;27.83;;
23802;SDS011;12082;51.786;6.018;2023-07-28T07:40:38;36.43;;;27.80;;
23802;SDS011;12082;51.786;6.018;2023-07-28T07:43:03;37.70;;;26.77;;
23802;SDS011;12082;51.786;6.018;2023-07-28T07:45:30;38.80;;;27.03;;
23802;SDS011;12082;51.786;6.018;2023-07-28T07:47:57;35.87;;;27.47;;
23802;SDS011;12082;51.786;6.018;2023-07-28T07:50:25;35.23;;;25.67;;
23802;SDS011;12082;51.786;6.018;2023-07-28T07:52:51;33.13;;;26.83;;
23802;SDS011;12082;51.786;6.018;2023-07-28T07:55:16;32.00;;;25.67;;
23802;SDS011;12082;51.786;6.018;2023-07-28T07:57:42;32.23;;;24.87;;
23802;SDS011;12082;51.786;6.018;2023-07-28T08:00:07;32.43;;;25.97;;
23802;SDS011;12082;51.786;6.018;2023-07-28T08:02:34;33.47;;;24.90;;
23802;SDS011;12082;51.786;6.018;2023-07-28T08:04:59;29.97;;;24.90;;
23802;SDS011;12082;51.786;6.018;2023-07-28T08:07:25;32.47;;;26.10;;
23802;SDS011;12082;51.786;6.018;2023-07-28T08:09:51;39.17;;;27.93;;
23802;SDS011;12082;51.786;6.018;2023-07-28T08:12:17;34.90;;;27.33;;
23802;SDS011;12082;51.786;6.018;2023-07-28T08:14:42;39.77;;;25.70;;
23802;SDS011;12082;51.786;6.018;2023-07-28T08:17:09;37.63;;;27.47;;
23802;SDS011;12082;51.786;6.018;2023-07-28T08:19:34;36.47;;;27.90;;
23802;SDS011;12082;51.786;6.018;2023-07-28T08:22:01;35.63;;;26.10;;
23802;SDS011;12082;51.786;6.018;2023-07-28T08:24:28;35.10;;;29.00;;
23802;SDS011;12082;51.786;6.018;2023-07-28T08:26:54;39.97;;;30.67;;
23802;SDS011;12082;51.786;6.018;2023-07-28T08:29:19;35.17;;;28.97;;
23802;SDS011;12082;51.786;6.018;2023-07-28T08:31:45;36.87;;;27.77;;
23802;SDS011;12082;51.786;6.018;2023-07-28T08:34:11;36.70;;;27.50;;
23802;SDS011;12082;51.786;6.018;2023-07-28T08:36:37;41.13;;;27.30;;
23802;SDS011;12082;51.786;6.018;2023-07-28T08:39:03;37.60;;;27.63;;
23802;SDS011;12082;51.786;6.018;2023-07-28T08:41:29;39.10;;;29.27;;
23802;SDS011;12082;51.786;6.018;2023-07-28T08:43:54;37.77;;;27.80;;
23802;SDS011;12082;51.786;6.018;2023-07-28T08:46:20;39.57;;;28.07;;
23802;SDS011;12082;51.786;6.018;2023-07-28T08:48:46;38.20;;;27.37;;
23802;SDS011;12082;51.786;6.018;2023-07-28T08:51:12;35.27;;;26.00;;
23802;SDS011;12082;51.786;6.018;2023-07-28T08:53:37;38.87;;;27.87;;
23802;SDS011;12082;51.786;6.018;2023-07-28T08:56:03;33.03;;;27.23;;
23802;SDS011;12082;51.786;6.018;2023-07-28T08:58:29;36.07;;;27.50;;
23802;SDS011;12082;51.786;6.018;2023-07-28T09:00:55;34.37;;;26.83;;
23802;SDS011;12082;51.786;6.018;2023-07-28T09:03:25;33.73;;;26.30;;
23802;SDS011;12082;51.786;6.018;2023-07-28T09:05:53;39.67;;;27.70;;
23802;SDS011;12082;51.786;6.018;2023-07-28T09:08:31;32.87;;;25.67;;
23802;SDS011;12082;51.786;6.018;2023-07-28T09:10:57;34.13;;;26.33;;
23802;SDS011;12082;51.786;6.018;2023-07-28T09:13:35;29.73;;;24.73;;
23802;SDS011;12082;51.786;6.018;2023-07-28T09:16:02;33.90;;;25.50;;
23802;SDS011;12082;51.786;6.018;2023-07-28T09:18:27;30.37;;;25.20;;
23802;SDS011;12082;51.786;6.018;2023-07-28T09:20:53;28.23;;;23.77;;
23802;SDS011;12082;51.786;6.018;2023-07-28T09:23:24;28.40;;;23.33;;
23802;SDS011;12082;51.786;6.018;2023-07-28T09:25:58;29.23;;;24.63;;
23802;SDS011;12082;51.786;6.018;2023-07-28T09:28:44;30.13;;;23.20;;
23802;SDS011;12082;51.786;6.018;2023-07-28T09:31:10;27.13;;;24.20;;
23802;SDS011;12082;51.786;6.018;2023-07-28T09:33:36;28.53;;;23.73;;
23802;SDS011;12082;51.786;6.018;2023-07-28T09:36:12;26.50;;;23.80;;
23802;SDS011;12082;51.786;6.018;2023-07-28T09:38:41;27.67;;;23.43;;
23802;SDS011;12082;51.786;6.018;2023-07-28T09:41:07;28.80;;;22.43;;
23802;SDS011;12082;51.786;6.018;2023-07-28T09:43:35;27.73;;;23.43;;
23802;SDS011;12082;51.786;6.018;2023-07-28T09:46:03;26.63;;;22.50;;
23802;SDS011;12082;51.786;6.018;2023-07-28T09:48:33;28.07;;;23.00;;
23802;SDS011;12082;51.786;6.018;2023-07-28T09:51:01;25.30;;;22.47;;
23802;SDS011;12082;51.786;6.018;2023-07-28T09:53:32;29.60;;;23.27;;
23802;SDS011;12082;51.786;6.018;2023-07-28T09:56:00;28.23;;;23.57;;
23802;SDS011;12082;51.786;6.018;2023-07-28T09:58:27;30.10;;;24.60;;
23802;SDS011;12082;51.786;6.018;2023-07-28T10:00:58;32.13;;;24.70;;
23802;SDS011;12082;51.786;6.018;2023-07-28T10:03:24;34.77;;;25.27;;
23802;SDS011;12082;51.786;6.018;2023-07-28T10:05:49;27.47;;;23.87;;
23802;SDS011;12082;51.786;6.018;2023-07-28T10:08:15;27.37;;;22.93;;
23802;SDS011;12082;51.786;6.018;2023-07-28T10:10:41;29.93;;;25.33;;
23802;SDS011;12082;51.786;6.018;2023-07-28T10:13:18;28.47;;;24.40;;
23802;SDS011;12082;51.786;6.018;2023-07-28T10:15:46;25.23;;;22.60;;
23802;SDS011;12082;51.786;6.018;2023-07-28T10:18:12;26.83;;;23.27;;
23802;SDS011;12082;51.786;6.018;2023-07-28T10:20:38;26.90;;;23.70;;
23802;SDS011;12082;51.786;6.018;2023-07-28T10:23:06;29.10;;;23.13;;
23802;SDS011;12082;51.786;6.018;2023-07-28T10:25:39;26.97;;;22.90;;
23802;SDS011;12082;51.786;6.018;2023-07-28T10:28:07;28.73;;;23.53;;
23802;SDS011;12082;51.786;6.018;2023-07-28T10:30:52;27.30;;;24.30;;
23802;SDS011;12082;51.786;6.018;2023-07-28T10:39:00;25.90;;;22.63;;
23802;SDS011;12082;51.786;6.018;2023-07-28T10:41:29;25.80;;;23.00;;
23802;SDS011;12082;51.786;6.018;2023-07-28T10:43:55;26.40;;;22.00;;
23802;SDS011;12082;51.786;6.018;2023-07-28T10:46:21;27.23;;;23.97;;
23802;SDS011;12082;51.786;6.018;2023-07-28T10:48:48;24.33;;;21.67;;
23802;SDS011;12082;51.786;6.018;2023-07-28T10:51:21;24.30;;;21.63;;
23802;SDS011;12082;51.786;6.018;2023-07-28T10:53:50;27.00;;;21.27;;
23802;SDS011;12082;51.786;6.018;2023-07-28T10:56:22;25.10;;;19.87;;
23802;SDS011;12082;51.786;6.018;2023-07-28T10:58:55;23.37;;;20.87;;
23802;SDS011;12082;51.786;6.018;2023-07-28T11:01:31;20.87;;;18.70;;
23802;SDS011;12082;51.786;6.018;2023-07-28T11:06:32;22.17;;;19.80;;
23802;SDS011;12082;51.786;6.018;2023-07-28T11:08:58;21.97;;;18.47;;
23802;SDS011;12082;51.786;6.018;2023-07-28T11:11:23;23.53;;;19.43;;
23802;SDS011;12082;51.786;6.018;2023-07-28T11:13:49;23.40;;;19.17;;
23802;SDS011;12082;51.786;6.018;2023-07-28T11:16:14;21.73;;;19.57;;
23802;SDS011;12082;51.786;6.018;2023-07-28T11:18:40;21.30;;;18.47;;
23802;SDS011;12082;51.786;6.018;2023-07-28T11:21:05;21.13;;;18.80;;
23802;SDS011;12082;51.786;6.018;2023-07-28T11:23:31;20.73;;;18.53;;
23802;SDS011;12082;51.786;6.018;2023-07-28T11:25:56;18.73;;;16.97;;
23802;SDS011;12082;51.786;6.018;2023-07-28T11:28:23;20.03;;;18.07;;
23802;SDS011;12082;51.786;6.018;2023-07-28T11:30:50;25.33;;;19.73;;
23802;SDS011;12082;51.786;6.018;2023-07-28T11:33:16;21.73;;;19.47;;
23802;SDS011;12082;51.786;6.018;2023-07-28T11:35:43;18.90;;;17.00;;
23802;SDS011;12082;51.786;6.018;2023-07-28T11:38:09;20.83;;;18.63;;
23802;SDS011;12082;51.786;6.018;2023-07-28T11:40:35;20.30;;;16.80;;
23802;SDS011;12082;51.786;6.018;2023-07-28T11:43:02;17.77;;;15.63;;
23802;SDS011;12082;51.786;6.018;2023-07-28T11:45:28;17.57;;;15.23;;
23802;SDS011;12082;51.786;6.018;2023-07-28T11:48:01;16.43;;;14.97;;
23802;SDS011;12082;51.786;6.018;2023-07-28T11:50:29;16.00;;;14.60;;
23802;SDS011;12082;51.786;6.018;2023-07-28T11:52:59;19.70;;;17.80;;
23802;SDS011;12082;51.786;6.018;2023-07-28T11:55:26;19.37;;;17.57;;
23802;SDS011;12082;51.786;6.018;2023-07-28T11:57:52;18.67;;;16.73;;
23802;SDS011;12082;51.786;6.018;2023-07-28T12:00:18;18.37;;;16.57;;
23802;SDS011;12082;51.786;6.018;2023-07-28T12:02:59;17.93;;;16.20;;
23802;SDS011;12082;51.786;6.018;2023-07-28T12:05:26;17.77;;;15.63;;
23802;SDS011;12082;51.786;6.018;2023-07-28T12:07:53;17.23;;;15.73;;
23802;SDS011;12082;51.786;6.018;2023-07-28T12:10:18;18.83;;;16.93;;
23802;SDS011;12082;51.786;6.018;2023-07-28T12:12:45;22.70;;;20.63;;
23802;SDS011;12082;51.786;6.018;2023-07-28T12:18:06;20.77;;;16.40;;
23802;SDS011;12082;51.786;6.018;2023-07-28T12:20:37;17.87;;;16.07;;
23802;SDS011;12082;51.786;6.018;2023-07-28T12:23:07;17.53;;;15.87;;
23802;SDS011;12082;51.786;6.018;2023-07-28T12:25:34;17.63;;;15.83;;
23802;SDS011;12082;51.786;6.018;2023-07-28T12:28:01;20.77;;;16.30;;
23802;SDS011;12082;51.786;6.018;2023-07-28T12:30:27;17.50;;;15.90;;
23802;SDS011;12082;51.786;6.018;2023-07-28T12:32:52;17.60;;;15.93;;
23802;SDS011;12082;51.786;6.018;2023-07-28T12:35:18;19.47;;;17.53;;
23802;SDS011;12082;51.786;6.018;2023-07-28T12:37:43;16.20;;;14.77;;
23802;SDS011;12082;51.786;6.018;2023-07-28T12:40:09;16.63;;;15.03;;
23802;SDS011;12082;51.786;6.018;2023-07-28T12:42:35;16.20;;;14.63;;
23802;SDS011;12082;51.786;6.018;2023-07-28T12:45:01;15.07;;;13.87;;
23802;SDS011;12082;51.786;6.018;2023-07-28T12:47:26;15.70;;;14.23;;
23802;SDS011;12082;51.786;6.018;2023-07-28T12:49:52;13.97;;;12.87;;
23802;SDS011;12082;51.786;6.018;2023-07-28T12:52:18;13.37;;;12.23;;
23802;SDS011;12082;51.786;6.018;2023-07-28T12:54:45;13.27;;;12.33;;
23802;SDS011;12082;51.786;6.018;2023-07-28T12:57:10;13.23;;;12.23;;
23802;SDS011;12082;51.786;6.018;2023-07-28T12:59:37;13.97;;;12.87;;
23802;SDS011;12082;51.786;6.018;2023-07-28T13:02:03;12.97;;;11.97;;
23802;SDS011;12082;51.786;6.018;2023-07-28T13:04:28;13.17;;;12.17;;
23802;SDS011;12082;51.786;6.018;2023-07-28T13:06:54;12.10;;;11.20;;
23802;SDS011;12082;51.786;6.018;2023-07-28T13:09:20;12.43;;;11.40;;
23802;SDS011;12082;51.786;6.018;2023-07-28T13:11:45;12.30;;;11.33;;
23802;SDS011;12082;51.786;6.018;2023-07-28T13:14:11;13.90;;;12.70;;
23802;SDS011;12082;51.786;6.018;2023-07-28T13:16:37;12.60;;;11.70;;
23802;SDS011;12082;51.786;6.018;2023-07-28T13:19:03;12.70;;;11.80;;
23802;SDS011;12082;51.786;6.018;2023-07-28T13:21:29;12.70;;;11.70;;
23802;SDS011;12082;51.786;6.018;2023-07-28T13:23:55;11.80;;;11.00;;
23802;SDS011;12082;51.786;6.018;2023-07-28T13:26:20;13.07;;;12.17;;
23802;SDS011;12082;51.786;6.018;2023-07-28T13:28:46;12.93;;;12.03;;
23802;SDS011;12082;51.786;6.018;2023-07-28T13:31:15;11.20;;;10.50;;
23802;SDS011;12082;51.786;6.018;2023-07-28T13:33:41;11.90;;;11.00;;
23802;SDS011;12082;51.786;6.018;2023-07-28T13:36:07;12.73;;;11.67;;
23802;SDS011;12082;51.786;6.018;2023-07-28T13:38:33;12.37;;;11.57;;
23802;SDS011;12082;51.786;6.018;2023-07-28T13:40:59;11.40;;;10.60;;
23802;SDS011;12082;51.786;6.018;2023-07-28T13:43:25;13.10;;;12.30;;
23802;SDS011;12082;51.786;6.018;2023-07-28T13:45:51;13.30;;;12.50;;
23802;SDS011;12082;51.786;6.018;2023-07-28T13:48:16;12.03;;;11.33;;
23802;SDS011;12082;51.786;6.018;2023-07-28T13:50:42;12.43;;;11.73;;
23802;SDS011;12082;51.786;6.018;2023-07-28T13:53:08;12.20;;;11.50;;
23802;SDS011;12082;51.786;6.018;2023-07-28T13:55:34;11.83;;;11.13;;
23802;SDS011;12082;51.786;6.018;2023-07-28T13:58:00;11.80;;;11.10;;
23802;SDS011;12082;51.786;6.018;2023-07-28T14:00:26;14.27;;;13.47;;
23802;SDS011;12082;51.786;6.018;2023-07-28T14:02:51;13.57;;;12.77;;
23802;SDS011;12082;51.786;6.018;2023-07-28T14:05:17;14.70;;;13.80;;
23802;SDS011;12082;51.786;6.018;2023-07-28T14:07:44;14.03;;;13.17;;
23802;SDS011;12082;51.786;6.018;2023-07-28T14:10:11;14.77;;;13.87;;
23802;SDS011;12082;51.786;6.018;2023-07-28T14:12:37;13.93;;;13.23;;
23802;SDS011;12082;51.786;6.018;2023-07-28T14:15:03;14.80;;;14.00;;
23802;SDS011;12082;51.786;6.018;2023-07-28T14:17:29;13.17;;;12.37;;
23802;SDS011;12082;51.786;6.018;2023-07-28T14:19:55;12.90;;;12.30;;
23802;SDS011;12082;51.786;6.018;2023-07-28T14:22:20;14.40;;;13.60;;
23802;SDS011;12082;51.786;6.018;2023-07-28T14:24:46;14.43;;;13.73;;
23802;SDS011;12082;51.786;6.018;2023-07-28T14:27:11;12.97;;;12.20;;
23802;SDS011;12082;51.786;6.018;2023-07-28T14:29:37;11.43;;;10.63;;
23802;SDS011;12082;51.786;6.018;2023-07-28T14:32:02;11.70;;;11.10;;